createdAt,value
2017-12-08T00:00:52.868Z,70.78
2017-12-08T00:03:21.971Z,70.86
2017-12-08T00:08:35.992Z,70.81
2017-12-08T00:11:04.339Z,70.54
2017-12-08T00:13:33.540Z,71.84
2017-12-08T00:16:01.868Z,72.51
2017-12-08T00:18:30.188Z,73.32
2017-12-08T00:20:59.289Z,73.36
2017-12-08T00:23:28.377Z,74.60
2017-12-08T00:25:57.506Z,75.14
2017-12-08T00:28:25.906Z,75.18
2017-12-08T00:30:54.254Z,75.87
2017-12-08T00:33:22.600Z,76.49
2017-12-08T00:35:50.964Z,75.68
2017-12-08T00:38:19.378Z,75.37
2017-12-08T00:40:47.689Z,75.92
2017-12-08T00:43:16.019Z,76.29
2017-12-08T00:45:44.424Z,76.39
2017-12-08T00:48:14.971Z,76.78
2017-12-08T00:50:44.056Z,76.35
2017-12-08T00:53:13.162Z,76.00
2017-12-08T00:55:41.466Z,75.64
2017-12-08T00:58:09.794Z,75.44
2017-12-08T01:00:38.730Z,75.45
2017-12-08T01:03:08.158Z,76.07
2017-12-08T01:05:36.506Z,76.07
2017-12-08T01:08:05.686Z,76.05
2017-12-08T01:10:35.080Z,75.76
2017-12-08T01:13:03.399Z,74.64
2017-12-08T01:15:32.555Z,74.52
2017-12-08T01:18:00.904Z,74.76
2017-12-08T01:20:30.021Z,75.18
2017-12-08T01:22:58.420Z,75.07
2017-12-08T01:25:26.792Z,74.22
2017-12-08T01:27:55.118Z,73.90
2017-12-08T01:30:24.172Z,73.26
2017-12-08T01:32:52.468Z,73.05
2017-12-08T01:35:20.783Z,73.30
2017-12-08T01:37:49.841Z,74.25
2017-12-08T01:40:18.988Z,75.08
2017-12-08T01:42:47.286Z,75.79
2017-12-08T01:45:15.590Z,76.33
2017-12-08T01:47:43.915Z,76.78
2017-12-08T01:50:12.985Z,76.75
2017-12-08T01:52:41.273Z,77.60
2017-12-08T01:55:09.570Z,78.39
2017-12-08T01:57:38.645Z,78.75
2017-12-08T02:00:07.007Z,79.02
2017-12-08T02:02:35.358Z,79.15
2017-12-08T02:05:03.648Z,78.93
2017-12-08T02:07:32.093Z,77.92
2017-12-08T02:10:01.166Z,77.92
2017-12-08T02:12:29.491Z,77.62
2017-12-08T02:14:57.886Z,77.97
2017-12-08T02:17:26.178Z,78.32
2017-12-08T02:19:54.470Z,78.53
2017-12-08T02:22:22.872Z,79.14
2017-12-08T02:24:51.185Z,79.13
2017-12-08T02:27:20.271Z,79.04
2017-12-08T02:29:49.357Z,79.08
2017-12-08T02:32:17.741Z,78.77
2017-12-08T02:34:46.086Z,77.71
2017-12-08T02:37:14.399Z,77.57
2017-12-08T02:39:42.774Z,77.79
2017-12-08T02:42:11.089Z,77.23
2017-12-08T02:44:40.152Z,77.29
2017-12-08T02:47:08.593Z,75.97
2017-12-08T02:49:36.895Z,76.51
2017-12-08T02:52:06.075Z,76.20
2017-12-08T02:54:34.384Z,75.43
2017-12-08T02:57:02.700Z,75.70
2017-12-08T02:59:31.796Z,76.30
2017-12-08T03:02:00.875Z,75.90
2017-12-08T03:04:29.175Z,75.04
2017-12-08T03:06:58.235Z,75.26
2017-12-08T03:09:26.570Z,74.80
2017-12-08T03:11:55.744Z,73.87
2017-12-08T03:14:24.065Z,73.23
2017-12-08T03:16:52.356Z,73.41
2017-12-08T03:19:20.647Z,72.53
2017-12-08T03:21:48.966Z,71.87
2017-12-08T03:24:18.044Z,71.33
2017-12-08T03:26:46.340Z,71.01
2017-12-08T03:29:14.642Z,71.04
2017-12-08T03:31:43.703Z,71.78
2017-12-08T03:34:11.989Z,71.88
2017-12-08T03:36:40.276Z,72.35
2017-12-08T03:39:08.577Z,72.14
2017-12-08T03:41:36.897Z,72.05
2017-12-08T03:44:05.279Z,71.95
2017-12-08T03:46:33.609Z,71.97
2017-12-08T03:49:02.673Z,71.76
2017-12-08T03:51:30.973Z,71.19
2017-12-08T03:53:59.279Z,70.62
2017-12-08T03:56:27.599Z,71.03
2017-12-08T03:58:55.901Z,69.91
2017-12-08T04:01:24.221Z,69.31
2017-12-08T04:03:53.314Z,69.86
2017-12-08T04:06:21.627Z,69.62
2017-12-08T04:08:49.927Z,70.69
2017-12-08T04:11:18.387Z,70.70
2017-12-08T04:13:46.718Z,70.52
2017-12-08T04:16:15.028Z,69.20
2017-12-08T04:18:44.106Z,68.89
2017-12-08T04:21:13.183Z,69.01
2017-12-08T04:23:41.477Z,68.46
2017-12-08T04:26:09.785Z,68.62
2017-12-08T04:28:38.858Z,68.44
2017-12-08T04:31:07.161Z,69.11
2017-12-08T04:33:36.222Z,67.49
2017-12-08T04:36:04.517Z,67.63
2017-12-08T04:38:32.891Z,66.75
2017-12-08T04:41:01.193Z,65.78
2017-12-08T04:43:29.641Z,66.55
2017-12-08T04:45:57.969Z,67.95
2017-12-08T04:48:27.053Z,68.17
2017-12-08T04:50:56.139Z,68.16
2017-12-08T04:53:24.463Z,67.88
2017-12-08T04:55:52.767Z,68.18
2017-12-08T04:58:21.095Z,68.52
2017-12-08T05:00:50.167Z,68.08
2017-12-08T05:03:18.466Z,68.63
2017-12-08T05:05:46.787Z,68.98
2017-12-08T05:08:15.576Z,67.96
2017-12-08T05:10:43.904Z,68.33
2017-12-08T05:13:12.225Z,68.37
2017-12-08T05:15:41.279Z,67.63
2017-12-08T05:18:09.770Z,67.58
2017-12-08T05:20:38.079Z,67.71
2017-12-08T05:23:07.131Z,66.94
2017-12-08T05:25:35.436Z,68.42
2017-12-08T05:28:05.239Z,69.80
2017-12-08T05:30:33.554Z,70.24
2017-12-08T05:33:02.633Z,70.53
2017-12-08T05:35:30.928Z,70.98
2017-12-08T05:38:00.002Z,71.40
2017-12-08T05:40:28.326Z,71.80
2017-12-08T05:42:56.624Z,71.62
2017-12-08T05:45:24.948Z,72.02
2017-12-08T05:47:53.308Z,72.36
2017-12-08T05:50:21.628Z,71.91
2017-12-08T05:52:50.770Z,71.57
2017-12-08T05:55:19.258Z,71.68
2017-12-08T05:57:47.557Z,71.62
2017-12-08T06:00:15.854Z,71.52
2017-12-08T06:02:44.170Z,71.07
2017-12-08T06:05:13.322Z,71.11
2017-12-08T06:07:41.706Z,71.96
2017-12-08T06:10:09.991Z,72.36
2017-12-08T06:12:38.434Z,72.82
2017-12-08T06:15:06.740Z,72.17
2017-12-08T06:17:35.144Z,71.38
2017-12-08T06:20:03.444Z,71.71
2017-12-08T06:22:32.538Z,70.52
2017-12-08T06:25:01.605Z,70.11
2017-12-08T06:27:29.970Z,70.14
2017-12-08T06:29:59.236Z,70.05
2017-12-08T06:32:27.575Z,69.36
2017-12-08T06:34:56.152Z,69.70
2017-12-08T06:37:25.260Z,69.21
2017-12-08T06:39:53.990Z,69.40
2017-12-08T06:42:23.059Z,69.51
2017-12-08T06:44:51.376Z,69.65
2017-12-08T06:47:19.686Z,70.59
2017-12-08T06:49:48.490Z,71.50
2017-12-08T06:52:16.888Z,71.90
2017-12-08T06:54:45.262Z,72.18
2017-12-08T06:57:13.809Z,73.19
2017-12-08T06:59:42.123Z,74.96
2017-12-08T07:02:10.555Z,76.09
2017-12-08T07:04:38.884Z,76.95
2017-12-08T07:07:07.208Z,77.78
2017-12-08T07:09:36.549Z,78.28
2017-12-08T07:12:04.865Z,78.87
2017-12-08T07:14:33.192Z,79.50
2017-12-08T07:17:01.515Z,80.34
2017-12-08T07:19:29.822Z,81.20
2017-12-08T07:21:58.102Z,81.83
2017-12-08T07:24:27.192Z,82.66
2017-12-08T07:26:55.509Z,83.34
2017-12-08T07:29:23.829Z,83.76
2017-12-08T07:31:52.117Z,84.11
2017-12-08T07:34:20.431Z,84.22
2017-12-08T07:36:49.604Z,84.54
2017-12-08T07:39:17.905Z,84.56
2017-12-08T07:41:46.975Z,85.06
2017-12-08T07:44:15.266Z,85.41
2017-12-08T07:46:44.353Z,85.88
2017-12-08T07:49:12.671Z,86.15
2017-12-08T07:51:41.746Z,86.47
2017-12-08T07:54:10.821Z,86.45
2017-12-08T07:56:39.216Z,86.50
2017-12-08T07:59:07.658Z,86.64
2017-12-08T08:01:35.963Z,86.75
2017-12-08T08:04:04.984Z,86.88
2017-12-08T08:06:33.288Z,86.89
2017-12-08T08:09:02.383Z,87.03
2017-12-08T08:11:31.465Z,87.11
2017-12-08T08:13:59.774Z,87.22
2017-12-08T08:16:28.121Z,87.27
2017-12-08T08:18:57.210Z,87.45
2017-12-08T08:21:25.524Z,87.57
2017-12-08T08:23:54.617Z,87.64
2017-12-08T08:26:23.701Z,87.67
2017-12-08T08:28:52.027Z,87.79
2017-12-08T08:31:20.336Z,87.80
2017-12-08T08:33:48.667Z,87.89
2017-12-08T08:36:17.755Z,87.91
2017-12-08T08:38:46.861Z,87.99
2017-12-08T08:41:15.150Z,88.04
2017-12-08T08:43:43.451Z,88.26
2017-12-08T08:46:11.750Z,88.59
2017-12-08T08:48:40.068Z,87.98
2017-12-08T08:51:09.270Z,87.26
2017-12-08T08:53:38.360Z,87.68
2017-12-08T08:56:06.828Z,88.02
2017-12-08T08:58:35.189Z,88.56
2017-12-08T09:01:04.308Z,88.90
2017-12-08T09:03:32.642Z,89.24
2017-12-08T09:06:00.946Z,89.39
2017-12-08T09:08:29.279Z,89.33
2017-12-08T09:10:58.473Z,89.54
2017-12-08T09:13:27.547Z,89.51
2017-12-08T09:15:55.865Z,89.34
2017-12-08T09:18:24.946Z,89.55
2017-12-08T09:20:53.296Z,89.62
2017-12-08T09:23:22.419Z,89.82
2017-12-08T09:25:51.503Z,90.08
2017-12-08T09:28:20.069Z,90.02
2017-12-08T09:30:48.478Z,90.20
2017-12-08T09:33:16.833Z,89.40
2017-12-08T09:35:45.136Z,89.26
2017-12-08T09:38:13.671Z,89.74
2017-12-08T09:40:41.982Z,89.77
2017-12-08T09:43:11.065Z,89.93
2017-12-08T09:45:39.406Z,90.30
2017-12-08T09:48:08.524Z,90.39
2017-12-08T09:50:36.862Z,90.40
2017-12-08T09:53:05.178Z,90.43
2017-12-08T09:55:34.267Z,90.37
2017-12-08T09:58:03.334Z,90.29
2017-12-08T10:00:31.662Z,90.16
2017-12-08T10:02:59.994Z,90.21
2017-12-08T10:05:28.495Z,90.46
2017-12-08T10:07:58.310Z,90.54
2017-12-08T10:10:26.626Z,90.54
2017-12-08T10:12:55.070Z,90.50
2017-12-08T10:15:23.367Z,90.79
2017-12-08T10:17:51.692Z,90.64
2017-12-08T10:20:20.739Z,90.10
2017-12-08T10:22:49.928Z,89.96
2017-12-08T10:25:19.741Z,89.70
2017-12-08T10:27:48.070Z,89.15
2017-12-08T10:30:16.427Z,89.08
2017-12-08T10:32:45.535Z,89.18
2017-12-08T10:35:14.606Z,89.19
2017-12-08T10:37:42.982Z,88.76
2017-12-08T10:40:11.298Z,88.63
2017-12-08T10:42:40.378Z,88.86
2017-12-08T10:45:08.676Z,88.78
2017-12-08T10:47:37.758Z,88.65
2017-12-08T10:50:06.821Z,87.67
2017-12-08T10:52:35.118Z,87.48
2017-12-08T10:55:03.428Z,88.11
2017-12-08T10:57:32.553Z,88.69
2017-12-08T11:00:00.908Z,88.75
2017-12-08T11:02:30.916Z,88.92
2017-12-08T11:04:59.232Z,88.92
2017-12-08T11:07:27.559Z,88.52
2017-12-08T11:09:55.889Z,88.57
2017-12-08T11:12:24.188Z,88.55
2017-12-08T11:14:52.501Z,88.41
2017-12-08T11:17:20.863Z,88.60
2017-12-08T11:19:49.178Z,88.21
2017-12-08T11:22:17.495Z,87.71
2017-12-08T11:24:45.918Z,85.78
2017-12-08T11:27:14.232Z,84.51
2017-12-08T11:29:43.310Z,84.17
2017-12-08T11:32:11.628Z,83.65
2017-12-08T11:34:39.966Z,83.01
2017-12-08T11:37:09.060Z,82.55
2017-12-08T11:39:37.365Z,82.27
2017-12-08T11:42:05.674Z,81.42
2017-12-08T11:44:33.993Z,81.33
2017-12-08T11:47:02.388Z,81.09
2017-12-08T11:49:30.682Z,81.14
2017-12-08T11:51:59.779Z,80.25
2017-12-08T11:54:28.146Z,79.12
2017-12-08T11:56:56.464Z,79.05
2017-12-08T11:59:25.528Z,79.82
2017-12-08T12:01:53.824Z,80.31
2017-12-08T12:04:22.123Z,80.92
2017-12-08T12:06:51.289Z,81.42
2017-12-08T12:09:19.595Z,81.74
2017-12-08T12:14:22.542Z,81.39
2017-12-08T12:16:51.781Z,81.33
2017-12-08T12:19:20.087Z,81.13
2017-12-08T12:21:49.168Z,81.74
2017-12-08T12:24:17.485Z,82.35
2017-12-08T12:26:45.802Z,82.79
2017-12-08T12:29:14.142Z,83.12
2017-12-08T12:31:43.253Z,83.26
2017-12-08T12:34:11.584Z,83.28
2017-12-08T12:36:39.922Z,83.13
2017-12-08T12:39:08.332Z,83.47
2017-12-08T12:41:36.654Z,83.79
2017-12-08T12:44:05.721Z,83.76
2017-12-08T12:46:34.061Z,83.77
2017-12-08T12:49:02.370Z,83.87
2017-12-08T12:51:30.726Z,83.88
2017-12-08T12:53:59.036Z,83.94
2017-12-08T12:56:27.369Z,84.04
2017-12-08T12:58:56.528Z,84.18
2017-12-08T13:01:24.838Z,84.31
2017-12-08T13:03:53.913Z,84.31
2017-12-08T13:06:22.225Z,82.72
2017-12-08T13:08:52.123Z,81.23
2017-12-08T13:11:21.220Z,79.43
2017-12-08T13:13:49.581Z,78.77
2017-12-08T13:16:17.909Z,77.14
2017-12-08T13:18:46.997Z,77.07
2017-12-08T13:21:16.061Z,75.84
2017-12-08T13:23:44.357Z,75.56
2017-12-08T13:26:12.690Z,73.10
2017-12-08T13:28:41.130Z,73.67
2017-12-08T13:31:10.216Z,73.27
2017-12-08T13:33:38.519Z,72.11
2017-12-08T13:36:07.609Z,73.14
2017-12-08T13:38:35.897Z,72.24
2017-12-08T13:41:04.984Z,71.86
2017-12-08T13:43:34.056Z,72.12
2017-12-08T13:46:02.387Z,70.40
2017-12-08T13:48:30.699Z,69.62
2017-12-08T13:50:59.062Z,68.81
2017-12-08T13:53:45.453Z,69.95
2017-12-08T13:56:31.472Z,68.51
2017-12-08T13:58:59.796Z,67.94
2017-12-08T14:01:28.888Z,68.32
2017-12-08T14:03:57.974Z,68.54
2017-12-08T14:06:26.273Z,68.39
2017-12-08T14:08:55.332Z,68.15
2017-12-08T14:11:23.684Z,67.39
2017-12-08T14:13:51.989Z,67.13
2017-12-08T14:16:20.335Z,66.81
2017-12-08T14:18:49.252Z,66.42
2017-12-08T14:21:17.597Z,65.54
2017-12-08T14:23:45.927Z,66.41
2017-12-08T14:26:14.242Z,65.88
2017-12-08T14:28:43.345Z,65.31
2017-12-08T14:31:12.443Z,65.76
2017-12-08T14:33:41.554Z,63.90
2017-12-08T14:36:09.949Z,65.09
2017-12-08T14:38:38.293Z,63.76
2017-12-08T14:41:07.359Z,64.22
2017-12-08T14:43:35.749Z,63.13
2017-12-08T14:46:04.037Z,62.85
2017-12-08T14:48:32.405Z,62.87
2017-12-08T14:51:01.563Z,62.75
2017-12-08T14:53:29.864Z,63.32
2017-12-08T14:55:58.185Z,63.10
2017-12-08T14:58:26.482Z,63.75
2017-12-08T15:00:55.565Z,62.98
2017-12-08T15:03:24.724Z,63.77
2017-12-08T15:05:53.029Z,63.60
2017-12-08T15:08:21.351Z,63.76
2017-12-08T15:10:50.408Z,63.17
2017-12-08T15:13:18.747Z,62.92
2017-12-08T15:15:47.095Z,62.16
2017-12-08T15:18:15.406Z,61.33
2017-12-08T15:20:43.713Z,60.89
2017-12-08T15:23:12.019Z,61.50
2017-12-08T15:25:40.330Z,62.30
2017-12-08T15:28:09.389Z,62.18
2017-12-08T15:30:37.688Z,62.70
2017-12-08T15:33:06.787Z,62.29
2017-12-08T15:35:35.841Z,62.48
2017-12-08T15:38:04.184Z,63.29
2017-12-08T15:40:33.412Z,63.85
2017-12-08T15:43:01.708Z,63.97
2017-12-08T15:45:30.014Z,63.45
2017-12-08T15:47:58.348Z,61.81
2017-12-08T15:50:26.647Z,64.56
2017-12-08T15:52:54.950Z,63.40
2017-12-08T15:55:23.256Z,64.32
2017-12-08T15:57:51.685Z,68.04
2017-12-08T16:00:20.102Z,70.36
2017-12-08T16:02:48.425Z,72.62
2017-12-08T16:05:16.724Z,74.21
2017-12-08T16:07:45.031Z,75.95
2017-12-08T16:10:13.329Z,76.83
2017-12-08T16:12:41.654Z,77.87
2017-12-08T16:15:10.078Z,78.70
2017-12-08T16:17:38.398Z,79.61
2017-12-08T16:20:07.499Z,80.52
2017-12-08T16:22:36.661Z,81.71
2017-12-08T16:25:05.111Z,82.13
2017-12-08T16:27:33.617Z,81.82
2017-12-08T16:30:02.025Z,82.68
2017-12-08T16:32:31.129Z,83.14
2017-12-08T16:35:00.214Z,83.76
2017-12-08T16:37:28.587Z,84.09
2017-12-08T16:39:57.145Z,84.22
2017-12-08T16:42:26.721Z,84.26
2017-12-08T16:44:55.821Z,83.64
2017-12-08T16:47:24.894Z,84.39
2017-12-08T16:49:53.300Z,84.73
2017-12-08T16:52:22.215Z,84.74
2017-12-08T16:54:50.531Z,85.34
2017-12-08T16:57:18.939Z,85.77
2017-12-08T16:59:47.305Z,85.80
2017-12-08T17:02:15.592Z,86.01
2017-12-08T17:04:43.909Z,85.59
2017-12-08T17:07:12.219Z,85.37
2017-12-08T17:09:40.543Z,85.60
2017-12-08T17:12:09.637Z,85.95
2017-12-08T17:14:37.955Z,85.92
2017-12-08T17:17:06.273Z,86.04
2017-12-08T17:19:34.587Z,86.79
2017-12-08T17:22:02.895Z,87.28
2017-12-08T17:24:31.214Z,87.73
2017-12-08T17:26:59.525Z,88.02
2017-12-08T17:29:28.763Z,88.41
2017-12-08T17:31:57.075Z,88.44
2017-12-08T17:34:25.389Z,88.72
2017-12-08T17:36:54.464Z,88.20
2017-12-08T17:39:22.982Z,88.17
2017-12-08T17:41:51.401Z,88.18
2017-12-08T17:44:19.689Z,88.06
2017-12-08T17:46:48.009Z,87.74
2017-12-08T17:49:16.377Z,88.15
2017-12-08T17:51:44.833Z,88.35
2017-12-08T17:54:13.229Z,88.50
2017-12-08T17:56:41.621Z,88.66
2017-12-08T17:59:10.097Z,88.68
2017-12-08T18:01:38.872Z,88.80
2017-12-08T18:04:07.232Z,88.79
2017-12-08T18:06:35.563Z,88.68
2017-12-08T18:09:03.923Z,88.32
2017-12-08T18:11:32.258Z,88.09
2017-12-08T18:14:00.617Z,87.99
2017-12-08T18:16:28.949Z,87.33
2017-12-08T18:18:57.251Z,85.53
2017-12-08T18:21:25.560Z,85.54
2017-12-08T18:23:55.131Z,86.47
2017-12-08T18:26:23.446Z,87.53
2017-12-08T18:28:51.752Z,87.72
2017-12-08T18:31:20.103Z,87.92
2017-12-08T18:33:48.410Z,88.00
2017-12-08T18:36:17.591Z,88.15
2017-12-08T18:38:46.719Z,88.24
2017-12-08T18:41:15.034Z,88.29
2017-12-08T18:43:43.380Z,88.45
2017-12-08T18:46:11.697Z,88.54
2017-12-08T18:48:40.077Z,88.73
2017-12-08T18:51:10.002Z,88.80
2017-12-08T18:53:38.341Z,88.88
2017-12-08T18:56:06.701Z,89.01
2017-12-08T18:58:36.177Z,89.25
2017-12-08T19:01:05.416Z,89.45
2017-12-08T19:03:34.510Z,89.32
2017-12-08T19:06:03.656Z,89.41
2017-12-08T19:08:31.990Z,89.43
2017-12-08T19:11:01.136Z,89.31
2017-12-08T19:13:29.552Z,89.31
2017-12-08T19:15:57.889Z,89.37
2017-12-08T19:18:26.202Z,89.19
2017-12-08T19:20:54.665Z,89.34
2017-12-08T19:23:23.180Z,89.45
2017-12-08T19:25:52.380Z,88.66
2017-12-08T19:28:21.508Z,87.62
2017-12-08T19:30:49.908Z,87.75
2017-12-08T19:33:18.229Z,88.04
2017-12-08T19:35:46.624Z,88.06
2017-12-08T19:38:15.751Z,88.28
2017-12-08T19:40:44.894Z,88.40
2017-12-08T19:43:13.216Z,88.66
2017-12-08T19:45:41.531Z,88.74
2017-12-08T19:48:09.850Z,88.76
2017-12-08T19:50:38.257Z,88.63
2017-12-08T19:53:06.568Z,88.41
2017-12-08T19:55:34.910Z,88.33
2017-12-08T19:58:03.286Z,88.01
2017-12-08T20:00:31.597Z,87.85
2017-12-08T20:03:00.668Z,87.65
2017-12-08T20:05:28.969Z,87.57
2017-12-08T20:07:58.086Z,87.90
2017-12-08T20:10:26.404Z,87.96
2017-12-08T20:12:54.704Z,87.96
2017-12-08T20:15:23.032Z,87.95
2017-12-08T20:17:51.336Z,87.60
2017-12-08T20:20:19.755Z,87.66
2017-12-08T20:22:48.086Z,87.79
2017-12-08T20:25:16.385Z,88.42
2017-12-08T20:27:44.879Z,88.97
2017-12-08T20:30:13.218Z,89.14
2017-12-08T20:32:41.550Z,89.07
2017-12-08T20:35:09.860Z,88.99
2017-12-08T20:37:38.972Z,88.69
2017-12-08T20:40:08.087Z,88.56
2017-12-08T20:42:36.413Z,88.47
2017-12-08T20:45:04.737Z,88.38
2017-12-08T20:47:34.266Z,88.41
2017-12-08T20:50:02.730Z,88.18
2017-12-08T20:52:31.818Z,88.07
2017-12-08T20:55:00.890Z,87.87
2017-12-08T20:57:29.201Z,87.87
2017-12-08T20:59:58.376Z,87.89
2017-12-08T21:02:26.736Z,87.99
2017-12-08T21:04:55.193Z,87.97
2017-12-08T21:07:23.752Z,88.07
2017-12-08T21:09:52.085Z,88.05
2017-12-08T21:12:20.458Z,88.13
2017-12-08T21:14:53.914Z,87.86
2017-12-08T21:17:23.079Z,87.77
2017-12-08T21:19:51.399Z,87.98
2017-12-08T21:22:19.736Z,88.02
2017-12-08T21:24:49.027Z,88.08
2017-12-08T21:27:17.998Z,88.08
2017-12-08T21:29:46.315Z,87.73
2017-12-08T21:32:14.736Z,87.46
2017-12-08T21:34:43.824Z,87.62
2017-12-08T21:37:13.183Z,87.65
2017-12-08T21:39:43.100Z,87.49
2017-12-08T21:42:11.423Z,87.44
2017-12-08T21:44:40.596Z,87.35
2017-12-08T21:47:09.053Z,87.31
2017-12-08T21:49:37.555Z,87.20
2017-12-08T21:52:05.884Z,87.09
2017-12-08T21:54:34.979Z,87.02
2017-12-08T21:57:04.112Z,87.12
2017-12-08T21:59:32.449Z,86.81
2017-12-08T22:02:00.768Z,86.63
2017-12-08T22:04:29.468Z,86.35
2017-12-08T22:06:57.787Z,86.30
2017-12-08T22:09:26.089Z,86.60
2017-12-08T22:11:55.201Z,86.56
2017-12-08T22:14:23.541Z,86.53
2017-12-08T22:16:51.853Z,86.49
2017-12-08T22:19:20.940Z,86.20
2017-12-08T22:21:50.020Z,86.22
2017-12-08T22:24:18.357Z,86.13
2017-12-08T22:26:46.696Z,86.36
2017-12-08T22:29:15.018Z,85.74
2017-12-08T22:31:43.379Z,85.59
2017-12-08T22:34:13.199Z,85.39
2017-12-08T22:36:42.272Z,85.53
2017-12-08T22:39:11.371Z,85.16
2017-12-08T22:41:40.549Z,85.05
2017-12-08T22:44:08.872Z,84.86
2017-12-08T22:46:37.317Z,84.74
2017-12-08T22:49:05.618Z,84.80
2017-12-08T22:51:34.734Z,84.90
2017-12-08T22:54:03.104Z,84.59
2017-12-08T22:56:32.198Z,84.32
2017-12-08T22:59:00.502Z,84.24
2017-12-08T23:01:28.822Z,84.48
2017-12-08T23:03:57.135Z,84.55
2017-12-08T23:06:25.449Z,84.58
2017-12-08T23:08:53.776Z,84.46
2017-12-08T23:11:22.103Z,84.44
2017-12-08T23:13:50.448Z,84.08
2017-12-08T23:16:18.749Z,83.92
2017-12-08T23:18:47.090Z,84.64
2017-12-08T23:21:15.440Z,84.49
2017-12-08T23:23:43.774Z,84.36
2017-12-08T23:26:12.864Z,84.66
2017-12-08T23:28:41.197Z,84.21
2017-12-08T23:31:09.527Z,84.38
2017-12-08T23:33:37.883Z,84.43
2017-12-08T23:36:06.189Z,84.53
2017-12-08T23:38:34.513Z,84.68
2017-12-08T23:41:02.851Z,84.64
2017-12-08T23:43:31.189Z,84.88
2017-12-08T23:45:59.496Z,84.68
2017-12-08T23:48:27.825Z,84.36
2017-12-08T23:50:56.915Z,83.95
2017-12-08T23:53:25.987Z,83.65
2017-12-08T23:55:54.311Z,83.20
2017-12-08T23:58:22.625Z,82.58
